Maidstone, Canada
Current Conditions -  °F | °C
As of 6:00 AM on Friday 24 Oct 2014 (Local Time) from CYLL Reporting Station
Broken Clouds Broken Clouds  
Wind Chill: 29°   Ceiling: 21000
Heat Index: 39°   Visibility: 9mi
Dew Point: 30°   Wind: 22mph
Humidity: 70%   Direction: 280°W
Pressure: 29.6"   Gusts: 30mph
Location:  53.08°N, 109.3°W
Report Text: CYLL 241100Z AUTO 28019G26KT 9SM FEW150 SCT190 BKN210 04/M01 A2960 RMK SLP040
Loading
Personal Weather Stations






























Interactive Weather Map
Tropical Storm Tracking
New forecast layout! Learn more

10-Day Weather Forecast

Advertisements
Track Severe Weather on mobile